createdAt,value
2024-02-24T00:00:57.014Z,7.76
2024-02-24T00:03:23.439Z,7.78
2024-02-24T00:05:49.918Z,7.76
2024-02-24T00:08:17.153Z,7.78
2024-02-24T00:10:43.681Z,7.74
2024-02-24T00:13:10.702Z,7.72
2024-02-24T00:15:37.191Z,7.73
2024-02-24T00:18:05.686Z,7.72
2024-02-24T00:20:32.382Z,7.71
2024-02-24T00:22:58.787Z,7.71
2024-02-24T00:25:25.155Z,7.70
2024-02-24T00:27:52.597Z,7.70
2024-02-24T00:30:19.010Z,7.70
2024-02-24T00:32:45.380Z,7.66
2024-02-24T00:35:11.814Z,7.66
2024-02-24T00:37:40.621Z,7.64
2024-02-24T00:40:08.380Z,7.64
2024-02-24T00:42:34.714Z,7.65
2024-02-24T00:45:01.866Z,7.67
2024-02-24T00:47:28.263Z,7.67
2024-02-24T00:49:54.641Z,7.70
2024-02-24T00:52:20.999Z,7.68
2024-02-24T00:54:47.320Z,7.67
2024-02-24T00:57:13.673Z,7.67
2024-02-24T00:59:40.749Z,7.66
2024-02-24T01:02:07.141Z,7.63
2024-02-24T01:04:33.486Z,7.62
2024-02-24T01:07:02.458Z,7.58
2024-02-24T01:09:29.288Z,7.55
2024-02-24T01:11:55.735Z,7.55
2024-02-24T01:14:22.146Z,7.55
2024-02-24T01:16:49.546Z,7.50
2024-02-24T01:19:15.933Z,7.50
2024-02-24T01:21:43.720Z,7.48
2024-02-24T01:24:10.267Z,7.45
2024-02-24T01:26:38.121Z,7.42
2024-02-24T01:29:04.628Z,7.42
2024-02-24T01:31:32.104Z,7.40
2024-02-24T01:33:58.741Z,7.37
2024-02-24T01:36:25.818Z,7.38
2024-02-24T01:38:55.112Z,7.38
2024-02-24T01:41:21.860Z,7.38
2024-02-24T01:43:48.334Z,7.35
2024-02-24T01:46:16.541Z,7.33
2024-02-24T01:48:43.618Z,7.30
2024-02-24T01:51:11.465Z,7.28
2024-02-24T01:53:38.232Z,7.26
2024-02-24T01:56:08.906Z,7.27
2024-02-24T01:58:38.597Z,7.23
2024-02-24T02:01:07.867Z,7.23
2024-02-24T02:03:34.969Z,7.22
2024-02-24T02:06:01.922Z,7.23
2024-02-24T02:08:28.442Z,7.23
2024-02-24T02:10:56.312Z,7.21
2024-02-24T02:13:23.923Z,7.20
2024-02-24T02:15:55.773Z,7.20
2024-02-24T02:18:23.654Z,7.16
2024-02-24T02:20:52.311Z,7.16
2024-02-24T02:23:19.694Z,7.17
2024-02-24T02:25:46.347Z,7.14
2024-02-24T02:28:13.039Z,7.17
2024-02-24T02:30:39.451Z,7.16
2024-02-24T02:33:07.416Z,7.12
2024-02-24T02:35:34.523Z,7.17
2024-02-24T02:38:00.923Z,7.15
2024-02-24T02:40:27.314Z,7.14
2024-02-24T02:42:53.852Z,7.12
2024-02-24T02:45:20.180Z,7.12
2024-02-24T02:47:46.611Z,7.09
2024-02-24T02:50:13.490Z,7.08
2024-02-24T02:52:39.843Z,7.01
2024-02-24T02:55:06.297Z,7.02
2024-02-24T02:57:33.252Z,7.01
2024-02-24T02:59:59.569Z,6.99
2024-02-24T03:02:25.971Z,6.99
2024-02-24T03:04:52.926Z,6.96
2024-02-24T03:07:19.326Z,6.94
2024-02-24T03:09:49.217Z,6.95
2024-02-24T03:12:16.818Z,6.94
2024-02-24T03:14:44.028Z,6.95
2024-02-24T03:17:10.771Z,6.95
2024-02-24T03:19:39.646Z,6.95
2024-02-24T03:22:06.562Z,6.95
2024-02-24T03:24:32.904Z,6.94
2024-02-24T03:26:59.374Z,6.94
2024-02-24T03:29:25.785Z,6.98
2024-02-24T03:31:52.187Z,6.98
2024-02-24T03:34:19.039Z,7.02
2024-02-24T03:36:45.356Z,7.05
2024-02-24T03:39:12.496Z,7.05
2024-02-24T03:41:38.843Z,7.11
2024-02-24T03:44:05.317Z,7.13
2024-02-24T03:46:31.755Z,7.18
2024-02-24T03:48:58.204Z,7.20
2024-02-24T03:51:24.718Z,7.22
2024-02-24T03:53:51.092Z,7.24
2024-02-24T03:56:17.712Z,7.27
2024-02-24T03:58:45.234Z,7.29
2024-02-24T04:01:11.982Z,7.34
2024-02-24T04:03:38.554Z,7.35
2024-02-24T04:06:06.235Z,7.37
2024-02-24T04:08:32.859Z,7.42
2024-02-24T04:11:00.156Z,7.40
2024-02-24T04:13:27.038Z,7.41
2024-02-24T04:15:53.372Z,7.42
2024-02-24T04:18:20.081Z,7.45
2024-02-24T04:20:48.500Z,7.46
2024-02-24T04:23:15.213Z,7.46
2024-02-24T04:25:41.601Z,7.49
2024-02-24T04:28:08.476Z,7.52
2024-02-24T04:30:36.289Z,7.53
2024-02-24T04:33:02.927Z,7.53
2024-02-24T04:35:29.964Z,7.55
2024-02-24T04:37:56.731Z,7.53
2024-02-24T04:40:23.060Z,7.54
2024-02-24T04:42:49.364Z,7.54
2024-02-24T04:45:16.290Z,7.51
2024-02-24T04:47:42.788Z,7.55
2024-02-24T04:50:09.921Z,7.55
2024-02-24T04:52:36.715Z,7.56
2024-02-24T04:55:03.199Z,7.59
2024-02-24T04:57:30.044Z,7.59
2024-02-24T04:59:56.380Z,7.60
2024-02-24T05:02:23.434Z,7.61
2024-02-24T05:04:49.922Z,7.61
2024-02-24T05:07:16.885Z,7.61
2024-02-24T05:09:43.205Z,7.61
2024-02-24T05:12:09.692Z,7.62
2024-02-24T05:14:39.452Z,7.61
2024-02-24T05:17:08.408Z,7.62
2024-02-24T05:19:35.047Z,7.58
2024-02-24T05:22:02.445Z,7.57
2024-02-24T05:24:29.202Z,7.57
2024-02-24T05:26:55.575Z,7.55
2024-02-24T05:29:22.154Z,7.55
2024-02-24T05:31:48.492Z,7.55
2024-02-24T05:34:15.643Z,7.52
2024-02-24T05:36:42.153Z,7.49
2024-02-24T05:39:08.612Z,7.49
2024-02-24T05:41:35.353Z,7.49
2024-02-24T05:44:01.777Z,7.49
2024-02-24T05:46:28.217Z,7.48
2024-02-24T05:48:54.567Z,7.51
2024-02-24T05:51:22.308Z,7.54
2024-02-24T05:53:49.807Z,7.52
2024-02-24T05:56:16.448Z,7.57
2024-02-24T05:58:42.933Z,7.59
2024-02-24T06:01:09.412Z,7.58
2024-02-24T06:03:36.301Z,7.56
2024-02-24T06:06:02.825Z,7.58
2024-02-24T06:08:29.707Z,7.58
2024-02-24T06:10:56.291Z,7.58
2024-02-24T06:13:23.206Z,7.55
2024-02-24T06:15:49.520Z,7.59
2024-02-24T06:18:17.171Z,7.56
2024-02-24T06:20:43.731Z,7.52
2024-02-24T06:23:10.564Z,7.55
2024-02-24T06:25:36.938Z,7.53
2024-02-24T06:28:03.438Z,7.56
2024-02-24T06:30:30.239Z,7.58
2024-02-24T06:32:56.645Z,7.55
2024-02-24T06:35:23.007Z,7.55
2024-02-24T06:37:49.398Z,7.57
2024-02-24T06:40:25.631Z,7.56
2024-02-24T06:42:56.255Z,7.56
2024-02-24T06:45:23.334Z,7.57
2024-02-24T06:47:49.822Z,7.57
2024-02-24T06:50:16.479Z,7.59
2024-02-24T06:52:43.044Z,7.64
2024-02-24T06:55:09.404Z,7.65
2024-02-24T06:57:35.732Z,7.69
2024-02-24T07:00:02.564Z,7.72
2024-02-24T07:02:29.257Z,7.74
2024-02-24T07:04:56.171Z,7.81
2024-02-24T07:07:22.541Z,7.83
2024-02-24T07:09:49.566Z,7.84
2024-02-24T07:12:15.952Z,7.86
2024-02-24T07:14:42.345Z,7.86
2024-02-24T07:17:09.155Z,7.86
2024-02-24T07:19:36.062Z,7.86
2024-02-24T07:22:03.161Z,7.92
2024-02-24T07:24:29.987Z,7.90
2024-02-24T07:26:56.404Z,7.94
2024-02-24T07:29:23.286Z,7.96
2024-02-24T07:31:49.643Z,7.98
2024-02-24T07:34:16.533Z,8.01
2024-02-24T07:36:42.912Z,8.01
2024-02-24T07:39:11.651Z,8.03
2024-02-24T07:41:42.297Z,8.06
2024-02-24T07:44:09.092Z,8.09
2024-02-24T07:46:36.149Z,8.10
2024-02-24T07:49:03.203Z,8.12
2024-02-24T07:51:30.126Z,8.15
2024-02-24T07:53:57.362Z,8.17
2024-02-24T07:56:25.604Z,8.19
2024-02-24T07:58:52.075Z,8.16
2024-02-24T08:01:18.995Z,8.16
2024-02-24T08:03:45.539Z,8.12
2024-02-24T08:06:12.684Z,8.11
2024-02-24T08:08:39.192Z,8.10
2024-02-24T08:11:07.003Z,8.08
2024-02-24T08:13:33.983Z,8.04
2024-02-24T08:16:05.025Z,8.00
2024-02-24T08:18:31.887Z,7.99
2024-02-24T08:21:00.720Z,7.98
2024-02-24T08:23:27.316Z,7.96
2024-02-24T08:25:56.515Z,7.91
2024-02-24T08:28:24.858Z,7.89
2024-02-24T08:30:51.207Z,7.88
2024-02-24T08:33:19.334Z,7.90
2024-02-24T08:35:47.034Z,7.93
2024-02-24T08:38:14.711Z,7.94
2024-02-24T08:40:41.035Z,7.96
2024-02-24T08:43:07.531Z,7.97
2024-02-24T08:45:34.292Z,8.01
2024-02-24T08:48:00.709Z,8.05
2024-02-24T08:50:27.188Z,8.07
2024-02-24T08:52:53.598Z,8.10
2024-02-24T08:55:20.622Z,8.13
2024-02-24T08:57:46.972Z,8.19
2024-02-24T09:00:14.608Z,8.26
2024-02-24T09:02:40.957Z,8.29
2024-02-24T09:05:08.041Z,8.29
2024-02-24T09:07:34.485Z,8.36
2024-02-24T09:10:04.636Z,8.41
2024-02-24T09:12:32.985Z,8.51
2024-02-24T09:14:59.319Z,8.55
2024-02-24T09:17:25.687Z,8.64
2024-02-24T09:19:52.636Z,8.69
2024-02-24T09:22:20.164Z,8.73
2024-02-24T09:24:47.314Z,8.74
2024-02-24T09:27:15.014Z,8.75
2024-02-24T09:29:41.759Z,8.80
2024-02-24T09:32:08.097Z,8.91
2024-02-24T09:34:34.548Z,8.92
2024-02-24T09:37:07.558Z,8.96
2024-02-24T09:39:33.946Z,9.03
2024-02-24T09:42:01.443Z,9.06
2024-02-24T09:44:30.998Z,9.14
2024-02-24T09:46:58.869Z,9.18
2024-02-24T09:49:29.963Z,9.24
2024-02-24T09:51:56.358Z,9.27
2024-02-24T09:54:23.075Z,9.28
2024-02-24T09:56:53.737Z,9.32
2024-02-24T09:59:22.103Z,9.38
2024-02-24T10:01:48.983Z,9.44
2024-02-24T10:04:16.545Z,9.49
2024-02-24T10:06:44.496Z,9.54
2024-02-24T10:09:12.991Z,9.56
2024-02-24T10:11:40.971Z,9.61
2024-02-24T10:14:07.968Z,9.64
2024-02-24T10:16:38.526Z,9.68
2024-02-24T10:19:07.009Z,9.71
2024-02-24T10:21:34.634Z,9.72
2024-02-24T10:24:01.898Z,9.75
2024-02-24T10:26:28.951Z,9.74
2024-02-24T10:28:56.008Z,9.74
2024-02-24T10:31:24.486Z,9.81
2024-02-24T10:33:51.615Z,9.89
2024-02-24T10:36:18.348Z,9.97
2024-02-24T10:38:55.338Z,10.07
2024-02-24T10:41:25.653Z,10.19
2024-02-24T10:44:02.444Z,10.34
2024-02-24T10:46:37.350Z,10.47
2024-02-24T10:49:05.046Z,10.55
2024-02-24T10:51:33.838Z,10.58
2024-02-24T10:54:06.809Z,10.58
2024-02-24T10:56:33.638Z,10.59
2024-02-24T10:59:10.222Z,10.61
2024-02-24T11:01:43.800Z,10.57
2024-02-24T11:04:12.685Z,10.55
2024-02-24T11:06:46.617Z,10.52
2024-02-24T11:09:34.890Z,10.48
2024-02-24T11:12:14.160Z,10.49
2024-02-24T11:14:51.774Z,10.51
2024-02-24T11:17:51.500Z,10.60
2024-02-24T11:20:41.335Z,10.62
2024-02-24T11:23:30.382Z,10.62
2024-02-24T11:26:22.538Z,10.59
2024-02-24T11:29:09.582Z,10.57
2024-02-24T11:31:38.172Z,10.54
2024-02-24T11:34:09.866Z,10.51
2024-02-24T11:36:39.534Z,10.48
2024-02-24T11:39:12.480Z,10.49
2024-02-24T11:41:41.650Z,10.48
2024-02-24T11:44:08.889Z,10.49
2024-02-24T11:46:36.756Z,10.49
2024-02-24T11:49:03.712Z,10.50
2024-02-24T11:51:30.337Z,10.55
2024-02-24T11:53:56.867Z,10.56
2024-02-24T11:56:24.014Z,10.60
2024-02-24T11:58:50.615Z,10.66
2024-02-24T12:01:17.246Z,10.73
2024-02-24T12:04:00.560Z,10.78
2024-02-24T12:06:29.321Z,10.89
2024-02-24T12:08:57.152Z,11.07
2024-02-24T12:11:25.372Z,11.28
2024-02-24T12:13:51.907Z,11.37
2024-02-24T12:16:18.441Z,11.45
2024-02-24T12:18:46.132Z,11.43
2024-02-24T12:21:13.150Z,11.43
2024-02-24T12:23:41.682Z,11.42
2024-02-24T12:26:15.629Z,11.40
2024-02-24T12:28:43.484Z,11.36
2024-02-24T12:31:11.832Z,11.38
2024-02-24T12:33:40.645Z,11.42
2024-02-24T12:36:08.580Z,11.49
2024-02-24T12:38:37.359Z,11.58
2024-02-24T12:41:10.453Z,11.68
2024-02-24T12:43:37.996Z,11.82
2024-02-24T12:46:05.385Z,11.96
2024-02-24T12:48:32.131Z,12.11
2024-02-24T12:50:59.379Z,12.26
2024-02-24T12:53:27.523Z,12.39
2024-02-24T12:55:57.152Z,12.40
2024-02-24T12:58:25.079Z,12.41
2024-02-24T13:00:53.976Z,12.52
2024-02-24T13:03:20.908Z,12.65
2024-02-24T13:05:47.891Z,12.77
2024-02-24T13:08:14.296Z,12.87
2024-02-24T13:10:40.792Z,13.07
2024-02-24T13:13:07.305Z,13.26
2024-02-24T13:15:33.687Z,13.52
2024-02-24T13:18:00.280Z,13.76
2024-02-24T13:20:26.721Z,13.94
2024-02-24T13:22:53.087Z,14.13
2024-02-24T13:25:19.483Z,14.30
2024-02-24T13:27:47.781Z,14.54
2024-02-24T13:30:14.351Z,14.72
2024-02-24T13:32:42.843Z,14.86
2024-02-24T13:35:09.383Z,14.96
2024-02-24T13:37:35.796Z,15.06
2024-02-24T13:40:02.313Z,14.97
2024-02-24T13:42:30.894Z,14.92
2024-02-24T13:44:59.002Z,14.74
2024-02-24T13:47:25.609Z,14.54
2024-02-24T13:49:52.032Z,14.32
2024-02-24T13:52:18.427Z,14.12
2024-02-24T13:54:44.965Z,13.96
2024-02-24T13:57:11.343Z,13.77
2024-02-24T13:59:37.876Z,13.57
2024-02-24T14:02:04.888Z,13.48
2024-02-24T14:04:31.389Z,13.40
2024-02-24T14:06:57.822Z,13.39
2024-02-24T14:09:24.245Z,13.40
2024-02-24T14:11:50.783Z,13.41
2024-02-24T14:14:17.281Z,13.42
2024-02-24T14:16:46.206Z,13.37
2024-02-24T14:19:13.388Z,13.27
2024-02-24T14:21:39.832Z,13.21
2024-02-24T14:24:06.609Z,13.13
2024-02-24T14:26:33.079Z,13.04
2024-02-24T14:29:01.874Z,13.00
2024-02-24T14:31:29.763Z,12.90
2024-02-24T14:33:56.241Z,12.83
2024-02-24T14:36:22.684Z,12.75
2024-02-24T14:38:49.124Z,12.70
2024-02-24T14:41:16.663Z,12.58
2024-02-24T14:43:43.276Z,12.49
2024-02-24T14:46:09.594Z,12.39
2024-02-24T14:52:24.304Z,12.21
2024-02-24T14:54:51.324Z,12.10
2024-02-24T14:57:17.780Z,11.96
2024-02-24T14:59:50.055Z,11.89
2024-02-24T15:02:25.729Z,11.85
2024-02-24T15:05:02.174Z,11.79
2024-02-24T15:07:28.532Z,11.75
2024-02-24T15:09:55.086Z,11.70
2024-02-24T15:12:22.480Z,11.62
2024-02-24T15:14:48.929Z,11.57
2024-02-24T15:17:15.543Z,11.50
2024-02-24T15:19:53.377Z,11.46
2024-02-24T15:22:20.253Z,11.43
2024-02-24T15:24:46.580Z,11.35
2024-02-24T15:27:13.229Z,11.30
2024-02-24T15:29:42.590Z,11.26
2024-02-24T15:32:08.920Z,11.22
2024-02-24T15:34:35.904Z,11.19
2024-02-24T15:37:02.376Z,11.10
2024-02-24T15:39:28.718Z,11.05
2024-02-24T15:41:55.183Z,11.04
2024-02-24T15:44:21.580Z,10.92
2024-02-24T15:46:48.486Z,10.92
2024-02-24T15:49:20.142Z,10.93
2024-02-24T15:51:46.464Z,10.86
2024-02-24T15:54:12.900Z,10.88
2024-02-24T15:56:39.618Z,10.84
2024-02-24T15:59:06.335Z,10.82
2024-02-24T16:01:32.686Z,10.81
2024-02-24T16:04:00.126Z,10.80
2024-02-24T16:06:29.526Z,10.80
2024-02-24T16:08:57.984Z,10.78
2024-02-24T16:11:24.461Z,10.77
2024-02-24T16:13:51.260Z,10.74
2024-02-24T16:16:20.311Z,10.77
2024-02-24T16:18:47.014Z,10.76
2024-02-24T16:21:13.905Z,10.73
2024-02-24T16:23:40.354Z,10.71
2024-02-24T16:26:06.794Z,10.69
2024-02-24T16:28:33.184Z,10.62
2024-02-24T16:30:59.566Z,10.59
2024-02-24T16:33:26.268Z,10.54
2024-02-24T16:35:52.743Z,10.53
2024-02-24T16:38:19.849Z,10.51
2024-02-24T16:40:46.313Z,10.52
2024-02-24T16:43:12.944Z,10.49
2024-02-24T16:45:39.375Z,10.47
2024-02-24T16:48:06.158Z,10.45
2024-02-24T16:50:32.648Z,10.42
2024-02-24T16:52:59.074Z,10.41
2024-02-24T16:55:25.411Z,10.38
2024-02-24T16:57:51.848Z,10.38
2024-02-24T17:00:19.073Z,10.39
2024-02-24T17:02:45.593Z,10.36
2024-02-24T17:05:13.739Z,10.33
2024-02-24T17:07:41.133Z,10.33
2024-02-24T17:10:07.825Z,10.31
2024-02-24T17:12:35.941Z,10.28
2024-02-24T17:15:03.989Z,10.27
2024-02-24T17:17:30.617Z,10.29
2024-02-24T17:19:57.882Z,10.29
2024-02-24T17:22:24.350Z,10.28
2024-02-24T17:24:52.561Z,10.27
2024-02-24T17:27:19.720Z,10.25
2024-02-24T17:29:46.137Z,10.27
2024-02-24T17:32:14.309Z,10.23
2024-02-24T17:34:40.716Z,10.26
2024-02-24T17:37:07.143Z,10.22
2024-02-24T17:39:35.751Z,10.20
2024-02-24T17:42:02.234Z,10.18
2024-02-24T17:44:28.613Z,10.16
2024-02-24T17:46:55.086Z,10.13
2024-02-24T17:49:25.684Z,10.12
2024-02-24T17:51:52.980Z,10.11
2024-02-24T17:54:19.547Z,10.06
2024-02-24T17:56:45.994Z,10.09
2024-02-24T17:59:12.398Z,10.06
2024-02-24T18:01:38.981Z,10.07
2024-02-24T18:04:05.366Z,10.09
2024-02-24T18:06:31.848Z,10.10
2024-02-24T18:08:58.341Z,10.09
2024-02-24T18:11:26.312Z,10.05
2024-02-24T18:13:52.857Z,10.10
2024-02-24T18:16:19.231Z,10.09
2024-02-24T18:18:46.274Z,10.11
2024-02-24T18:21:18.949Z,10.11
2024-02-24T18:23:45.378Z,10.12
2024-02-24T18:26:12.088Z,10.11
2024-02-24T18:28:38.692Z,10.11
2024-02-24T18:31:05.071Z,10.08
2024-02-24T18:33:31.541Z,10.11
2024-02-24T18:35:58.106Z,10.10
2024-02-24T18:38:24.591Z,10.07
2024-02-24T18:40:51.002Z,10.04
2024-02-24T18:43:17.366Z,10.00
2024-02-24T18:45:45.246Z,9.99
2024-02-24T18:48:11.737Z,9.96
2024-02-24T18:50:38.393Z,9.94
2024-02-24T18:53:04.763Z,9.96
2024-02-24T18:55:32.279Z,9.90
2024-02-24T18:57:59.921Z,9.88
2024-02-24T19:00:27.995Z,9.82
2024-02-24T19:02:54.669Z,9.83
2024-02-24T19:05:21.201Z,9.80
2024-02-24T19:07:53.452Z,9.80
2024-02-24T19:10:19.979Z,9.80
2024-02-24T19:12:47.817Z,9.80
2024-02-24T19:15:14.480Z,9.80
2024-02-24T19:17:41.340Z,9.79
2024-02-24T19:20:08.318Z,9.79
2024-02-24T19:22:34.683Z,9.79
2024-02-24T19:25:01.957Z,9.80
2024-02-24T19:27:28.583Z,9.81
2024-02-24T19:29:55.011Z,9.80
2024-02-24T19:32:21.346Z,9.81
2024-02-24T19:34:48.288Z,9.82
2024-02-24T19:37:14.829Z,9.84
2024-02-24T19:39:41.793Z,9.88
2024-02-24T19:42:08.240Z,9.85
2024-02-24T19:44:35.111Z,9.86
2024-02-24T19:47:05.319Z,9.84
2024-02-24T19:49:31.693Z,9.85
2024-02-24T19:51:58.225Z,9.82
2024-02-24T19:54:24.600Z,9.83
2024-02-24T19:56:51.020Z,9.83
2024-02-24T19:59:17.523Z,9.82
2024-02-24T20:01:43.909Z,9.82
2024-02-24T20:04:10.267Z,9.75
2024-02-24T20:06:37.027Z,9.80
2024-02-24T20:09:03.729Z,9.78
2024-02-24T20:11:30.646Z,9.78
2024-02-24T20:13:57.126Z,9.75
2024-02-24T20:16:23.441Z,9.79
2024-02-24T20:18:49.998Z,9.78
2024-02-24T20:21:17.521Z,9.79
2024-02-24T20:23:44.809Z,9.79
2024-02-24T20:26:11.349Z,9.77
2024-02-24T20:28:45.004Z,9.79
2024-02-24T20:31:13.509Z,9.79
2024-02-24T20:33:39.997Z,9.77
2024-02-24T20:36:07.061Z,9.73
2024-02-24T20:38:33.502Z,9.73
2024-02-24T20:41:02.222Z,9.72
2024-02-24T20:43:28.718Z,9.72
2024-02-24T20:45:55.618Z,9.72
2024-02-24T20:48:23.219Z,9.71
2024-02-24T20:50:50.196Z,9.68
2024-02-24T20:53:16.777Z,9.67
2024-02-24T20:55:43.104Z,9.66
2024-02-24T20:58:10.787Z,9.65
2024-02-24T21:00:37.171Z,9.64
2024-02-24T21:03:04.108Z,9.63
2024-02-24T21:05:31.255Z,9.59
2024-02-24T21:07:57.624Z,9.60
2024-02-24T21:10:24.939Z,9.56
2024-02-24T21:12:51.308Z,9.55
2024-02-24T21:15:17.626Z,9.54
2024-02-24T21:17:44.482Z,9.52
2024-02-24T21:20:11.879Z,9.50
2024-02-24T21:22:38.423Z,9.47
2024-02-24T21:25:08.253Z,9.47
2024-02-24T21:27:35.179Z,9.45
2024-02-24T21:30:02.964Z,9.46
2024-02-24T21:32:29.485Z,9.45
2024-02-24T21:34:55.896Z,9.42
2024-02-24T21:37:23.514Z,9.42
2024-02-24T21:39:50.352Z,9.41
2024-02-24T21:42:16.774Z,9.40
2024-02-24T21:44:43.356Z,9.38
2024-02-24T21:47:09.871Z,9.36
2024-02-24T21:49:36.784Z,9.34
2024-02-24T21:52:05.415Z,9.33
2024-02-24T21:54:33.624Z,9.30
2024-02-24T21:57:00.490Z,9.29
2024-02-24T21:59:26.868Z,9.25
2024-02-24T22:01:53.860Z,9.25
2024-02-24T22:04:24.574Z,9.25
2024-02-24T22:06:54.271Z,9.26
2024-02-24T22:09:21.062Z,9.25
2024-02-24T22:11:47.926Z,9.22
2024-02-24T22:14:20.308Z,9.25
2024-02-24T22:16:46.878Z,9.25
2024-02-24T22:19:14.113Z,9.24
2024-02-24T22:21:40.454Z,9.24
2024-02-24T22:24:07.474Z,9.24
2024-02-24T22:26:33.926Z,9.22
2024-02-24T22:29:01.888Z,9.18
2024-02-24T22:31:29.366Z,9.21
2024-02-24T22:33:55.937Z,9.19
2024-02-24T22:36:23.903Z,9.18
2024-02-24T22:38:53.465Z,9.16
2024-02-24T22:41:24.088Z,9.10
2024-02-24T22:43:51.272Z,9.08
2024-02-24T22:46:21.526Z,9.05
2024-02-24T22:48:48.413Z,9.01
2024-02-24T22:51:14.869Z,8.98
2024-02-24T22:53:42.172Z,8.95
2024-02-24T22:56:09.208Z,8.90
2024-02-24T22:58:35.588Z,8.86
2024-02-24T23:01:02.253Z,8.82
2024-02-24T23:03:29.031Z,8.78
2024-02-24T23:05:55.941Z,8.76
2024-02-24T23:08:22.384Z,8.74
2024-02-24T23:10:48.773Z,8.72
2024-02-24T23:13:15.234Z,8.69
2024-02-24T23:15:42.529Z,8.68
2024-02-24T23:18:09.282Z,8.63
2024-02-24T23:20:35.923Z,8.64
2024-02-24T23:23:02.817Z,8.59
2024-02-24T23:25:29.689Z,8.56
2024-02-24T23:27:56.045Z,8.56
2024-02-24T23:30:22.882Z,8.53
2024-02-24T23:32:49.814Z,8.47
2024-02-24T23:35:16.734Z,8.48
2024-02-24T23:37:43.124Z,8.47
2024-02-24T23:40:12.449Z,8.46
2024-02-24T23:42:39.001Z,8.40
2024-02-24T23:45:06.349Z,8.39
2024-02-24T23:47:32.936Z,8.36
2024-02-24T23:49:59.475Z,8.33
2024-02-24T23:52:27.204Z,8.34
2024-02-24T23:54:55.891Z,8.30
2024-02-24T23:57:24.002Z,8.28
2024-02-24T23:59:50.963Z,8.25
